createdAt,value
2017-08-18T00:00:55.767Z,23.7
2017-08-18T00:02:03.857Z,23.7
2017-08-18T00:03:11.968Z,23.6
2017-08-18T00:04:20.058Z,23.7
2017-08-18T00:05:28.122Z,23.6
2017-08-18T00:06:36.211Z,23.6
2017-08-18T00:07:44.297Z,23.7
2017-08-18T00:08:52.396Z,23.6
2017-08-18T00:10:00.472Z,23.6
2017-08-18T00:11:08.564Z,23.7
2017-08-18T00:12:16.650Z,23.7
2017-08-18T00:13:24.740Z,23.6
2017-08-18T00:14:32.997Z,23.7
2017-08-18T00:15:40.923Z,23.6
2017-08-18T00:16:49.005Z,23.6
2017-08-18T00:17:57.093Z,23.6
2017-08-18T00:19:05.181Z,23.7
2017-08-18T00:20:13.271Z,23.6
2017-08-18T00:21:21.366Z,23.6
2017-08-18T00:22:29.456Z,23.6
2017-08-18T00:23:37.543Z,23.5
2017-08-18T00:24:45.633Z,23.6
2017-08-18T00:25:53.721Z,23.6
2017-08-18T00:27:01.806Z,23.6
2017-08-18T00:28:09.895Z,23.5
2017-08-18T00:29:17.984Z,23.6
2017-08-18T00:30:26.074Z,23.6
2017-08-18T00:31:34.160Z,23.5
2017-08-18T00:32:42.249Z,23.5
2017-08-18T00:33:50.338Z,23.6
2017-08-18T00:34:58.426Z,23.6
2017-08-18T00:36:06.515Z,23.5
2017-08-18T00:37:14.602Z,23.5
2017-08-18T00:38:22.687Z,23.6
2017-08-18T00:39:30.802Z,23.5
2017-08-18T00:40:38.866Z,23.6
2017-08-18T00:41:46.954Z,23.5
2017-08-18T00:42:55.041Z,23.5
2017-08-18T00:44:03.131Z,23.5
2017-08-18T00:45:11.226Z,23.5
2017-08-18T00:46:19.317Z,23.6
2017-08-18T00:47:27.401Z,23.5
2017-08-18T00:48:35.489Z,23.5
2017-08-18T00:49:43.587Z,23.5
2017-08-18T00:50:51.669Z,23.5
2017-08-18T00:51:59.757Z,23.5
2017-08-18T00:53:07.842Z,23.5
2017-08-18T00:54:15.931Z,23.5
2017-08-18T00:55:24.022Z,23.6
2017-08-18T00:56:32.108Z,23.6
2017-08-18T00:57:40.196Z,23.6
2017-08-18T00:58:48.347Z,23.5
2017-08-18T00:59:56.372Z,23.6
2017-08-18T01:01:04.468Z,23.5
2017-08-18T01:02:12.548Z,23.6
2017-08-18T01:03:20.656Z,23.4
2017-08-18T01:04:28.726Z,23.5
2017-08-18T01:05:36.821Z,23.5
2017-08-18T01:06:44.901Z,23.5
2017-08-18T01:07:52.991Z,23.5
2017-08-18T01:09:01.082Z,23.5
2017-08-18T01:10:09.168Z,23.5
2017-08-18T01:11:17.255Z,23.4
2017-08-18T01:12:25.343Z,23.4
2017-08-18T01:13:33.433Z,23.4
2017-08-18T01:14:41.520Z,23.5
2017-08-18T01:15:49.608Z,23.4
2017-08-18T01:16:57.694Z,23.5
2017-08-18T01:18:05.788Z,23.4
2017-08-18T01:19:13.872Z,23.5
2017-08-18T01:20:21.961Z,23.5
2017-08-18T01:21:30.050Z,23.4
2017-08-18T01:22:38.139Z,23.5
2017-08-18T01:23:46.226Z,23.4
2017-08-18T01:24:54.320Z,23.4
2017-08-18T01:26:02.402Z,23.5
2017-08-18T01:27:10.490Z,23.4
2017-08-18T01:28:18.579Z,23.4
2017-08-18T01:29:26.668Z,23.4
2017-08-18T01:30:34.758Z,23.4
2017-08-18T01:31:42.844Z,23.5
2017-08-18T01:32:50.933Z,23.3
2017-08-18T01:33:59.023Z,23.4
2017-08-18T01:35:07.109Z,23.4
2017-08-18T01:36:15.196Z,23.4
2017-08-18T01:37:23.286Z,23.4
2017-08-18T01:38:31.374Z,23.4
2017-08-18T01:39:39.463Z,23.5
2017-08-18T01:40:47.551Z,23.3
2017-08-18T01:41:55.640Z,23.3
2017-08-18T01:43:03.728Z,23.3
2017-08-18T01:44:11.816Z,23.4
2017-08-18T01:45:19.926Z,23.4
2017-08-18T01:46:27.991Z,23.3
2017-08-18T01:47:36.080Z,23.4
2017-08-18T01:48:44.166Z,23.4
2017-08-18T01:49:52.255Z,23.4
2017-08-18T01:51:00.346Z,23.4
2017-08-18T01:52:08.434Z,23.3
2017-08-18T01:53:16.522Z,23.5
2017-08-18T01:54:24.608Z,23.4
2017-08-18T01:55:32.696Z,23.4
2017-08-18T01:56:40.783Z,23.3
2017-08-18T01:57:48.872Z,23.4
2017-08-18T01:58:56.960Z,23.3
2017-08-18T02:00:05.050Z,23.4
2017-08-18T02:01:13.136Z,23.3
2017-08-18T02:02:21.227Z,23.3
2017-08-18T02:03:29.314Z,23.3
2017-08-18T02:04:37.401Z,23.4
2017-08-18T02:05:45.497Z,23.3
2017-08-18T02:06:53.578Z,23.4
2017-08-18T02:08:01.665Z,23.3
2017-08-18T02:09:09.753Z,23.3
2017-08-18T02:10:17.848Z,23.3
2017-08-18T02:11:25.946Z,23.4
2017-08-18T02:12:34.031Z,23.3
2017-08-18T02:13:42.126Z,23.4
2017-08-18T02:14:50.208Z,23.3
2017-08-18T02:15:58.296Z,23.3
2017-08-18T02:17:06.385Z,23.3
2017-08-18T02:18:14.472Z,23.4
2017-08-18T02:19:22.560Z,23.3
2017-08-18T02:20:30.652Z,23.3
2017-08-18T02:21:38.736Z,23.3
2017-08-18T02:22:46.829Z,23.4
2017-08-18T02:23:54.921Z,23.3
2017-08-18T02:25:03.003Z,23.3
2017-08-18T02:26:11.089Z,23.3
2017-08-18T02:27:19.183Z,23.3
2017-08-18T02:28:27.268Z,23.3
2017-08-18T02:29:35.360Z,23.3
2017-08-18T02:30:43.444Z,23.3
2017-08-18T02:31:51.530Z,23.3
2017-08-18T02:32:59.618Z,23.3
2017-08-18T02:34:07.708Z,23.3
2017-08-18T02:35:15.796Z,23.3
2017-08-18T02:36:23.884Z,23.3
2017-08-18T02:37:31.975Z,23.3
2017-08-18T02:38:40.063Z,23.3
2017-08-18T02:39:48.150Z,23.3
2017-08-18T02:40:56.237Z,23.3
2017-08-18T02:42:04.325Z,23.2
2017-08-18T02:43:12.414Z,23.3
2017-08-18T02:44:20.503Z,23.3
2017-08-18T02:45:28.592Z,23.2
2017-08-18T02:46:36.703Z,23.3
2017-08-18T02:47:44.766Z,23.1
2017-08-18T02:50:01.100Z,23.2
2017-08-18T02:51:09.033Z,23.2
2017-08-18T02:52:17.129Z,23.3
2017-08-18T02:53:25.209Z,23.2
2017-08-18T02:54:33.299Z,23.2
2017-08-18T02:55:41.386Z,23.3
2017-08-18T02:56:49.496Z,23.2
2017-08-18T02:57:57.581Z,23.2
2017-08-18T02:59:05.654Z,23.2
2017-08-18T03:00:13.738Z,23.2
2017-08-18T03:01:21.825Z,23.2
2017-08-18T03:02:29.913Z,23.2
2017-08-18T03:03:38.003Z,23.3
2017-08-18T03:04:46.099Z,23.2
2017-08-18T03:05:54.178Z,23.2
2017-08-18T03:07:02.269Z,23.2
2017-08-18T03:08:10.360Z,23.2
2017-08-18T03:09:18.443Z,23.2
2017-08-18T03:10:26.534Z,23.2
2017-08-18T03:11:34.621Z,23.2
2017-08-18T03:12:42.706Z,23.1
2017-08-18T03:13:50.806Z,23.1
2017-08-18T03:14:58.901Z,23.2
2017-08-18T03:16:06.983Z,23.2
2017-08-18T03:17:15.082Z,23.1
2017-08-18T03:18:23.170Z,23.2
2017-08-18T03:19:31.258Z,23.1
2017-08-18T03:20:39.349Z,23.2
2017-08-18T03:21:47.434Z,23.1
2017-08-18T03:22:55.523Z,23.2
2017-08-18T03:24:03.611Z,23.1
2017-08-18T03:25:11.701Z,23.2
2017-08-18T03:26:19.788Z,23.1
2017-08-18T03:27:27.874Z,23.1
2017-08-18T03:28:35.962Z,23.2
2017-08-18T03:29:44.052Z,23.2
2017-08-18T03:30:52.139Z,23.2
2017-08-18T03:32:00.225Z,23.1
2017-08-18T03:33:08.317Z,23.2
2017-08-18T03:34:16.405Z,23.2
2017-08-18T03:35:24.493Z,23.2
2017-08-18T03:36:32.579Z,23.2
2017-08-18T03:37:40.668Z,23.2
2017-08-18T03:38:48.782Z,23.1
2017-08-18T03:39:56.858Z,23.1
2017-08-18T03:41:04.941Z,23.1
2017-08-18T03:42:13.033Z,23.1
2017-08-18T03:43:21.120Z,23.1
2017-08-18T03:44:29.206Z,23.2
2017-08-18T03:45:37.296Z,23.1
2017-08-18T03:46:45.385Z,23.1
2017-08-18T03:47:53.471Z,23.1
2017-08-18T03:49:01.562Z,23.1
2017-08-18T03:50:09.651Z,23.1
2017-08-18T03:51:17.738Z,23.1
2017-08-18T03:52:25.827Z,23.1
2017-08-18T03:53:33.916Z,23.0
2017-08-18T03:54:42.002Z,23.1
2017-08-18T03:55:50.094Z,23.1
2017-08-18T03:56:58.178Z,23.1
2017-08-18T03:58:06.268Z,23.1
2017-08-18T03:59:14.353Z,23.1
2017-08-18T04:00:22.444Z,23.1
2017-08-18T04:01:30.532Z,23.1
2017-08-18T04:02:38.622Z,23.1
2017-08-18T04:03:46.713Z,23.0
2017-08-18T04:04:54.797Z,23.0
2017-08-18T04:06:02.884Z,23.0
2017-08-18T04:07:10.973Z,23.0
2017-08-18T04:08:19.062Z,23.1
2017-08-18T04:09:27.150Z,23.1
2017-08-18T04:10:35.248Z,23.1
2017-08-18T04:11:43.326Z,23.1
2017-08-18T04:12:51.413Z,23.1
2017-08-18T04:13:59.503Z,23.1
2017-08-18T04:15:07.589Z,23.1
2017-08-18T04:16:15.676Z,23.1
2017-08-18T04:17:23.763Z,23.0
2017-08-18T04:18:31.854Z,23.1
2017-08-18T04:19:39.943Z,23.0
2017-08-18T04:20:48.031Z,23.0
2017-08-18T04:21:56.121Z,23.0
2017-08-18T04:23:04.208Z,23.1
2017-08-18T04:24:12.296Z,23.0
2017-08-18T04:25:20.381Z,23.0
2017-08-18T04:26:28.470Z,23.0
2017-08-18T04:27:36.560Z,23.0
2017-08-18T04:28:44.649Z,23.0
2017-08-18T04:29:52.734Z,23.0
2017-08-18T04:31:00.826Z,23.1
2017-08-18T04:32:08.913Z,22.9
2017-08-18T04:33:17.004Z,22.9
2017-08-18T04:34:25.138Z,22.9
2017-08-18T04:35:33.175Z,23.0
2017-08-18T04:36:41.266Z,23.0
2017-08-18T04:37:49.354Z,23.0
2017-08-18T04:38:57.443Z,23.0
2017-08-18T04:40:05.531Z,22.9
2017-08-18T04:41:13.619Z,23.0
2017-08-18T04:42:21.716Z,22.9
2017-08-18T04:43:29.796Z,22.9
2017-08-18T04:44:37.895Z,23.0
2017-08-18T04:45:45.971Z,23.0
2017-08-18T04:46:54.057Z,23.0
2017-08-18T04:48:02.150Z,23.0
2017-08-18T04:49:10.237Z,22.9
2017-08-18T04:50:18.324Z,22.9
2017-08-18T04:51:26.412Z,23.0
2017-08-18T04:52:34.500Z,22.9
2017-08-18T04:53:42.589Z,23.0
2017-08-18T04:54:50.677Z,22.9
2017-08-18T04:55:58.764Z,23.0
2017-08-18T04:57:06.852Z,23.0
2017-08-18T04:58:14.942Z,22.9
2017-08-18T04:59:23.029Z,22.9
2017-08-18T05:00:31.129Z,23.0
2017-08-18T05:01:39.208Z,23.0
2017-08-18T05:02:47.296Z,23.0
2017-08-18T05:03:55.383Z,23.0
2017-08-18T05:05:03.471Z,22.9
2017-08-18T05:06:11.559Z,22.9
2017-08-18T05:07:19.647Z,23.0
2017-08-18T05:08:27.737Z,23.0
2017-08-18T05:09:35.824Z,22.9
2017-08-18T05:10:43.912Z,22.9
2017-08-18T05:11:52.000Z,23.0
2017-08-18T05:13:00.090Z,22.9
2017-08-18T05:14:08.180Z,23.0
2017-08-18T05:15:16.266Z,22.9
2017-08-18T05:16:24.352Z,22.9
2017-08-18T05:17:32.445Z,22.9
2017-08-18T05:18:40.535Z,22.9
2017-08-18T05:19:48.619Z,22.8
2017-08-18T05:20:56.705Z,22.9
2017-08-18T05:22:04.796Z,22.9
2017-08-18T05:23:12.882Z,23.0
2017-08-18T05:24:20.970Z,22.9
2017-08-18T05:25:29.057Z,23.0
2017-08-18T05:26:37.145Z,23.0
2017-08-18T05:27:45.236Z,22.9
2017-08-18T05:28:53.322Z,23.0
2017-08-18T05:30:01.405Z,22.9
2017-08-18T05:31:09.498Z,23.0
2017-08-18T05:32:17.595Z,22.9
2017-08-18T05:33:25.686Z,22.8
2017-08-18T05:34:33.775Z,23.0
2017-08-18T05:35:41.861Z,23.0
2017-08-18T05:36:49.951Z,22.9
2017-08-18T05:37:58.041Z,22.9
2017-08-18T05:39:06.127Z,22.9
2017-08-18T05:40:14.218Z,22.9
2017-08-18T05:41:22.303Z,22.9
2017-08-18T05:42:30.390Z,22.9
2017-08-18T05:43:38.479Z,22.9
2017-08-18T05:44:46.620Z,23.0
2017-08-18T05:45:54.657Z,23.0
2017-08-18T05:47:02.746Z,23.0
2017-08-18T05:48:10.833Z,23.0
2017-08-18T05:49:18.922Z,22.9
2017-08-18T05:50:27.015Z,22.9
2017-08-18T05:51:35.098Z,23.0
2017-08-18T05:52:43.186Z,22.9
2017-08-18T05:53:51.273Z,22.9
2017-08-18T05:54:59.361Z,22.9
2017-08-18T05:56:07.451Z,23.0
2017-08-18T05:57:15.538Z,22.9
2017-08-18T05:58:23.624Z,22.9
2017-08-18T05:59:31.714Z,22.9
2017-08-18T06:00:39.803Z,22.9
2017-08-18T06:01:47.891Z,22.9
2017-08-18T06:02:55.981Z,22.9
2017-08-18T06:04:04.070Z,22.8
2017-08-18T06:05:12.151Z,22.9
2017-08-18T06:06:20.420Z,22.9
2017-08-18T06:07:28.329Z,22.9
2017-08-18T06:08:36.426Z,22.8
2017-08-18T06:09:44.507Z,22.9
2017-08-18T06:10:52.594Z,22.9
2017-08-18T06:12:00.682Z,22.8
2017-08-18T06:13:08.771Z,22.9
2017-08-18T06:14:16.858Z,22.8
2017-08-18T06:15:24.945Z,22.8
2017-08-18T06:16:33.031Z,22.9
2017-08-18T06:17:41.133Z,22.9
2017-08-18T06:18:49.209Z,22.9
2017-08-18T06:19:57.297Z,22.9
2017-08-18T06:21:05.470Z,22.9
2017-08-18T06:22:13.474Z,22.9
2017-08-18T06:23:21.562Z,22.9
2017-08-18T06:24:29.708Z,22.8
2017-08-18T06:25:37.739Z,22.9
2017-08-18T06:26:45.825Z,22.9
2017-08-18T06:27:53.916Z,22.8
2017-08-18T06:29:02.009Z,22.9
2017-08-18T06:30:10.107Z,22.9
2017-08-18T06:31:18.195Z,22.8
2017-08-18T06:32:26.284Z,22.8
2017-08-18T06:33:34.380Z,22.8
2017-08-18T06:34:42.465Z,22.8
2017-08-18T06:35:50.549Z,22.8
2017-08-18T06:36:58.636Z,22.8
2017-08-18T06:38:06.759Z,22.8
2017-08-18T06:39:14.810Z,22.8
2017-08-18T06:40:23.207Z,22.8
2017-08-18T06:41:30.986Z,22.8
2017-08-18T06:42:39.160Z,22.8
2017-08-18T06:43:47.164Z,22.8
2017-08-18T06:44:55.252Z,22.8
2017-08-18T06:46:03.344Z,22.8
2017-08-18T06:47:11.426Z,22.7
2017-08-18T06:48:19.570Z,22.8
2017-08-18T06:49:27.603Z,22.8
2017-08-18T06:50:35.766Z,22.7
2017-08-18T06:51:43.792Z,22.8
2017-08-18T06:52:51.865Z,22.8
2017-08-18T06:53:59.953Z,22.8
2017-08-18T06:55:08.045Z,22.8
2017-08-18T06:56:16.139Z,22.8
2017-08-18T06:57:24.220Z,22.7
2017-08-18T06:58:32.307Z,22.8
2017-08-18T06:59:40.395Z,22.6
2017-08-18T07:00:48.507Z,22.7
2017-08-18T07:01:56.570Z,22.7
2017-08-18T07:03:04.665Z,22.6
2017-08-18T07:04:12.754Z,22.6
2017-08-18T07:05:20.838Z,22.7
2017-08-18T07:06:28.926Z,22.6
2017-08-18T07:07:37.024Z,22.6
2017-08-18T07:08:45.101Z,22.7
2017-08-18T07:09:53.192Z,22.6
2017-08-18T07:11:01.387Z,22.7
2017-08-18T07:12:09.653Z,22.8
2017-08-18T07:13:17.686Z,22.6
2017-08-18T07:14:25.634Z,22.7
2017-08-18T07:15:33.637Z,22.6
2017-08-18T07:16:41.846Z,22.7
2017-08-18T07:17:49.822Z,22.7
2017-08-18T07:18:58.034Z,22.6
2017-08-18T07:20:06.100Z,22.7
2017-08-18T07:21:14.154Z,22.7
2017-08-18T07:22:22.338Z,22.6
2017-08-18T07:23:30.272Z,22.6
2017-08-18T07:24:38.470Z,22.6
2017-08-18T07:25:46.569Z,22.6
2017-08-18T07:26:54.565Z,22.7
2017-08-18T07:28:02.598Z,22.6
2017-08-18T07:29:10.785Z,22.6
2017-08-18T07:30:19.010Z,22.6
2017-08-18T07:31:27.047Z,22.6
2017-08-18T07:32:35.235Z,22.6
2017-08-18T07:33:43.275Z,22.7
2017-08-18T07:34:51.407Z,22.6
2017-08-18T07:35:59.225Z,22.6
2017-08-18T07:37:07.428Z,22.7
2017-08-18T07:38:15.608Z,22.6
2017-08-18T07:39:23.724Z,22.6
2017-08-18T07:40:31.884Z,22.6
2017-08-18T07:41:39.693Z,22.7
2017-08-18T07:42:47.793Z,22.6
2017-08-18T07:43:55.963Z,22.7
2017-08-18T07:45:04.026Z,22.7
2017-08-18T07:46:12.205Z,22.6
2017-08-18T07:47:20.265Z,22.6
2017-08-18T07:48:28.340Z,22.7
2017-08-18T07:49:36.417Z,22.7
2017-08-18T07:50:44.548Z,22.6
2017-08-18T07:51:52.601Z,22.8
2017-08-18T07:53:00.620Z,22.7
2017-08-18T07:54:08.751Z,22.8
2017-08-18T07:55:16.964Z,22.8
2017-08-18T07:56:24.952Z,22.8
2017-08-18T07:57:33.056Z,22.8
2017-08-18T07:58:41.111Z,22.8
2017-08-18T07:59:49.384Z,22.8
2017-08-18T08:00:57.367Z,22.7
2017-08-18T08:02:05.453Z,22.8
2017-08-18T08:03:13.485Z,22.8
2017-08-18T08:04:21.576Z,22.8
2017-08-18T08:05:29.639Z,22.8
2017-08-18T08:06:37.885Z,22.8
2017-08-18T08:07:45.888Z,22.8
2017-08-18T08:08:53.947Z,22.7
2017-08-18T08:10:02.155Z,22.8
2017-08-18T08:11:10.068Z,22.8
2017-08-18T08:12:18.225Z,22.8
2017-08-18T08:13:26.351Z,22.8
2017-08-18T08:14:34.384Z,22.9
2017-08-18T08:15:42.526Z,22.8
2017-08-18T08:16:50.658Z,22.9
2017-08-18T08:17:58.713Z,22.9
2017-08-18T08:19:06.761Z,22.9
2017-08-18T08:20:14.931Z,22.9
2017-08-18T08:21:22.939Z,22.9
2017-08-18T08:22:31.113Z,22.8
2017-08-18T08:23:39.118Z,22.9
2017-08-18T08:24:47.253Z,22.8
2017-08-18T08:25:55.258Z,22.9
2017-08-18T08:27:03.318Z,22.9
2017-08-18T08:28:11.444Z,23.0
2017-08-18T08:29:19.412Z,22.9
2017-08-18T08:30:27.642Z,22.9
2017-08-18T08:31:35.669Z,22.9
2017-08-18T08:32:43.781Z,22.9
2017-08-18T08:33:52.000Z,22.9
2017-08-18T08:34:59.970Z,22.9
2017-08-18T08:36:08.027Z,23.1
2017-08-18T08:37:16.249Z,23.0
2017-08-18T08:38:24.347Z,23.0
2017-08-18T08:39:32.340Z,23.0
2017-08-18T08:40:40.407Z,22.9
2017-08-18T08:41:48.624Z,22.9
2017-08-18T08:42:56.578Z,23.1
2017-08-18T08:44:04.769Z,22.9
2017-08-18T08:45:12.896Z,23.1
2017-08-18T08:46:20.735Z,23.1
2017-08-18T08:47:28.932Z,23.0
2017-08-18T08:48:37.093Z,23.1
2017-08-18T08:49:45.106Z,23.1
2017-08-18T08:50:53.282Z,23.0
2017-08-18T08:52:01.333Z,23.1
2017-08-18T08:53:09.442Z,23.1
2017-08-18T08:54:17.658Z,23.1
2017-08-18T08:55:25.753Z,23.1
2017-08-18T08:56:33.819Z,23.1
2017-08-18T08:57:41.803Z,23.2
2017-08-18T08:58:49.894Z,23.2
2017-08-18T08:59:58.056Z,23.2
2017-08-18T09:01:06.171Z,23.1
2017-08-18T09:02:14.209Z,23.2
2017-08-18T09:03:22.149Z,23.2
2017-08-18T09:04:30.280Z,23.2
2017-08-18T09:05:38.400Z,23.3
2017-08-18T09:06:46.455Z,23.2
2017-08-18T09:07:54.643Z,23.3
2017-08-18T09:09:02.643Z,23.3
2017-08-18T09:10:10.772Z,23.3
2017-08-18T09:11:18.890Z,23.3
2017-08-18T09:12:26.889Z,23.3
2017-08-18T09:13:34.917Z,23.3
2017-08-18T09:14:43.050Z,23.2
2017-08-18T09:15:51.189Z,23.3
2017-08-18T09:16:59.252Z,23.3
2017-08-18T09:18:07.487Z,23.3
2017-08-18T09:19:15.432Z,23.3
2017-08-18T09:20:23.501Z,23.3
2017-08-18T09:21:31.577Z,23.4
2017-08-18T09:22:39.735Z,23.4
2017-08-18T09:23:47.800Z,23.4
2017-08-18T09:24:55.871Z,23.4
2017-08-18T09:26:03.930Z,23.4
2017-08-18T09:27:12.151Z,23.4
2017-08-18T09:28:20.209Z,23.5
2017-08-18T09:29:28.256Z,23.4
2017-08-18T09:30:36.314Z,23.4
2017-08-18T09:31:44.435Z,23.4
2017-08-18T09:32:52.503Z,23.4
2017-08-18T09:34:00.573Z,23.5
2017-08-18T09:35:08.645Z,23.5
2017-08-18T09:36:16.677Z,23.5
2017-08-18T09:37:24.895Z,23.5
2017-08-18T09:38:32.943Z,23.5
2017-08-18T09:39:41.018Z,23.5
2017-08-18T09:40:49.109Z,23.6
2017-08-18T09:41:57.252Z,23.5
2017-08-18T09:43:05.370Z,23.5
2017-08-18T09:44:13.445Z,23.5
2017-08-18T09:45:21.491Z,23.6
2017-08-18T09:46:29.568Z,23.5
2017-08-18T09:47:37.809Z,23.6
2017-08-18T09:48:45.732Z,23.5
2017-08-18T09:49:53.822Z,23.6
2017-08-18T09:51:01.950Z,23.6
2017-08-18T09:52:10.023Z,23.6
2017-08-18T09:53:18.186Z,23.6
2017-08-18T09:54:26.273Z,23.6
2017-08-18T09:55:34.327Z,23.6
2017-08-18T09:56:42.400Z,23.6
2017-08-18T09:57:50.582Z,23.7
2017-08-18T09:58:58.502Z,23.6
2017-08-18T10:00:06.724Z,23.7
2017-08-18T10:01:14.756Z,23.7
2017-08-18T10:02:22.848Z,23.8
2017-08-18T10:03:30.907Z,23.7
2017-08-18T10:04:39.061Z,23.7
2017-08-18T10:05:47.166Z,23.8
2017-08-18T10:06:55.202Z,23.8
2017-08-18T10:08:03.262Z,23.8
2017-08-18T10:09:11.355Z,23.8
2017-08-18T10:10:19.541Z,23.8
2017-08-18T10:11:27.523Z,23.8
2017-08-18T10:12:35.625Z,23.8
2017-08-18T10:13:43.765Z,23.8
2017-08-18T10:14:51.706Z,23.8
2017-08-18T10:15:59.889Z,23.8
2017-08-18T10:17:07.951Z,23.9
2017-08-18T10:18:16.112Z,23.8
2017-08-18T10:19:24.070Z,23.9
2017-08-18T10:20:32.256Z,23.8
2017-08-18T10:21:40.372Z,23.9
2017-08-18T10:22:48.371Z,24.0
2017-08-18T10:23:56.551Z,23.9
2017-08-18T10:25:04.664Z,23.9
2017-08-18T10:26:12.689Z,23.9
2017-08-18T10:27:20.844Z,23.9
2017-08-18T10:28:29.046Z,24.0
2017-08-18T10:29:36.971Z,23.9
2017-08-18T10:30:45.063Z,23.9
2017-08-18T10:31:53.232Z,24.0
2017-08-18T10:33:01.306Z,23.9
2017-08-18T10:34:09.357Z,24.0
2017-08-18T10:35:17.477Z,24.0
2017-08-18T10:36:25.386Z,24.0
2017-08-18T10:37:33.476Z,24.0
2017-08-18T10:38:41.573Z,24.1
2017-08-18T10:39:49.657Z,24.1
2017-08-18T10:40:57.749Z,24.1
2017-08-18T10:42:05.842Z,24.1
2017-08-18T10:43:13.920Z,24.1
2017-08-18T10:44:22.011Z,24.1
2017-08-18T10:45:30.103Z,24.1
2017-08-18T10:46:38.189Z,24.1
2017-08-18T10:47:46.286Z,24.1
2017-08-18T10:48:54.369Z,24.1
2017-08-18T10:50:02.459Z,24.1
2017-08-18T10:51:10.547Z,24.3
2017-08-18T10:52:18.643Z,24.2
2017-08-18T10:53:26.726Z,24.2
2017-08-18T10:54:34.816Z,24.2
2017-08-18T10:55:42.912Z,24.2
2017-08-18T10:56:50.993Z,24.2
2017-08-18T10:57:59.085Z,24.2
2017-08-18T10:59:07.256Z,24.3
2017-08-18T11:00:15.263Z,24.3
2017-08-18T11:01:23.358Z,24.3
2017-08-18T11:02:31.446Z,24.3
2017-08-18T11:03:39.528Z,24.3
2017-08-18T11:04:47.622Z,24.4
2017-08-18T11:05:55.707Z,24.4
2017-08-18T11:07:03.798Z,24.3
2017-08-18T11:08:11.888Z,24.4
2017-08-18T11:09:19.978Z,24.4
2017-08-18T11:10:28.065Z,24.3
2017-08-18T11:11:36.165Z,24.4
2017-08-18T11:12:44.253Z,24.4
2017-08-18T11:13:52.340Z,24.5
2017-08-18T11:15:00.654Z,24.4
2017-08-18T11:16:08.524Z,24.4
2017-08-18T11:17:16.609Z,24.4
2017-08-18T11:18:24.702Z,24.5
2017-08-18T11:19:32.795Z,24.5
2017-08-18T11:20:40.877Z,24.5
2017-08-18T11:21:48.978Z,24.5
2017-08-18T11:22:57.066Z,24.5
2017-08-18T11:24:05.162Z,24.6
2017-08-18T11:25:13.243Z,24.6
2017-08-18T11:26:21.336Z,24.6
2017-08-18T11:27:29.424Z,24.6
2017-08-18T11:28:37.510Z,24.6
2017-08-18T11:29:45.605Z,24.6
2017-08-18T11:30:53.714Z,24.6
2017-08-18T11:32:01.805Z,24.6
2017-08-18T11:33:09.883Z,24.6
2017-08-18T11:34:17.985Z,24.6
2017-08-18T11:35:26.075Z,24.6
2017-08-18T11:36:34.578Z,24.6
2017-08-18T11:37:42.256Z,24.6
2017-08-18T11:38:50.351Z,24.6
2017-08-18T11:39:58.442Z,24.6
2017-08-18T11:41:06.529Z,24.6
2017-08-18T11:42:14.615Z,24.6
2017-08-18T11:43:22.716Z,24.6
2017-08-18T11:44:30.797Z,24.7
2017-08-18T11:45:38.889Z,24.6
2017-08-18T11:46:46.978Z,24.7
2017-08-18T11:47:55.652Z,24.7
2017-08-18T11:49:03.161Z,24.8
2017-08-18T11:50:11.252Z,24.7
2017-08-18T11:51:19.342Z,24.8
2017-08-18T11:52:28.127Z,24.7
2017-08-18T11:53:35.522Z,24.8
2017-08-18T11:54:43.630Z,24.7
2017-08-18T11:55:51.700Z,24.8
2017-08-18T11:56:59.812Z,24.8
2017-08-18T11:58:07.884Z,24.8
2017-08-18T11:59:16.654Z,24.7
2017-08-18T12:00:24.058Z,24.8
2017-08-18T12:01:32.317Z,24.9
2017-08-18T12:02:41.983Z,24.9
2017-08-18T12:03:49.004Z,24.8
2017-08-18T12:04:57.117Z,24.8
2017-08-18T12:06:04.507Z,24.8
2017-08-18T12:07:13.135Z,24.9
2017-08-18T12:08:21.454Z,24.9
2017-08-18T12:09:29.492Z,24.8
2017-08-18T12:10:36.895Z,24.9
2017-08-18T12:11:45.320Z,24.8
2017-08-18T12:12:53.759Z,24.8
2017-08-18T12:14:01.347Z,24.9
2017-08-18T12:15:09.226Z,24.8
2017-08-18T12:16:17.479Z,24.9
2017-08-18T12:17:26.101Z,25.0
2017-08-18T12:18:34.021Z,25.0
2017-08-18T12:19:42.135Z,24.9
2017-08-18T12:20:55.371Z,24.9
2017-08-18T12:21:58.532Z,24.9
2017-08-18T12:23:05.861Z,25.0
2017-08-18T12:24:14.689Z,24.9
2017-08-18T12:25:22.043Z,25.0
2017-08-18T12:26:30.193Z,25.0
2017-08-18T12:27:38.222Z,25.0
2017-08-18T12:28:46.311Z,25.0
2017-08-18T12:29:55.574Z,25.0
2017-08-18T12:31:02.492Z,24.9
2017-08-18T12:32:11.109Z,25.0
2017-08-18T12:33:19.104Z,25.0
2017-08-18T12:34:27.450Z,24.9
2017-08-18T12:35:35.174Z,25.0
2017-08-18T12:36:42.939Z,24.9
2017-08-18T12:37:51.721Z,25.1
2017-08-18T12:38:59.116Z,25.1
2017-08-18T12:40:07.220Z,25.0
2017-08-18T12:41:15.301Z,25.0
2017-08-18T12:42:23.394Z,25.1
2017-08-18T12:43:31.481Z,25.1
2017-08-18T12:44:39.570Z,25.1
2017-08-18T12:45:47.658Z,25.0
2017-08-18T12:46:55.752Z,25.1
2017-08-18T12:48:03.837Z,25.1
2017-08-18T12:49:11.925Z,25.1
2017-08-18T12:50:20.015Z,25.0
2017-08-18T12:51:28.108Z,25.1
2017-08-18T12:52:36.218Z,25.1
2017-08-18T12:53:44.287Z,25.1
2017-08-18T12:54:52.377Z,25.1
2017-08-18T12:56:00.465Z,25.1
2017-08-18T12:57:08.553Z,25.2
2017-08-18T12:58:16.652Z,25.2
2017-08-18T12:59:24.733Z,25.2
2017-08-18T13:00:32.827Z,25.2
2017-08-18T13:01:40.923Z,25.2
2017-08-18T13:02:49.003Z,25.1
2017-08-18T13:03:57.106Z,25.2
2017-08-18T13:05:05.186Z,25.2
2017-08-18T13:06:13.284Z,25.1
2017-08-18T13:07:21.372Z,25.2
2017-08-18T13:08:29.464Z,25.2
2017-08-18T13:09:37.561Z,25.3
2017-08-18T13:10:45.652Z,25.2
2017-08-18T13:11:53.738Z,25.2
2017-08-18T13:13:01.830Z,25.2
2017-08-18T13:14:09.922Z,25.3
2017-08-18T13:15:18.010Z,25.2
2017-08-18T13:16:26.101Z,25.3
2017-08-18T13:17:34.191Z,25.3
2017-08-18T13:18:42.280Z,25.3
2017-08-18T13:19:50.372Z,25.3
2017-08-18T13:20:58.466Z,25.3
2017-08-18T13:22:06.551Z,25.3
2017-08-18T13:23:14.663Z,25.4
2017-08-18T13:24:22.729Z,25.3
2017-08-18T13:25:30.818Z,25.3
2017-08-18T13:26:38.923Z,25.3
2017-08-18T13:27:47.018Z,25.3
2017-08-18T13:28:55.098Z,25.4
2017-08-18T13:30:03.191Z,25.4
2017-08-18T13:31:11.275Z,25.3
2017-08-18T13:32:19.371Z,25.3
2017-08-18T13:33:27.457Z,25.4
2017-08-18T13:34:35.546Z,25.3
2017-08-18T13:35:43.638Z,25.4
2017-08-18T13:36:51.728Z,25.4
2017-08-18T13:37:59.816Z,25.4
2017-08-18T13:39:07.908Z,25.4
2017-08-18T13:40:16.006Z,25.4
2017-08-18T13:41:24.095Z,25.4
2017-08-18T13:42:32.184Z,25.4
2017-08-18T13:43:40.276Z,25.3
2017-08-18T13:44:48.366Z,25.5
2017-08-18T13:45:56.456Z,25.4
2017-08-18T13:47:04.547Z,25.4
2017-08-18T13:48:12.684Z,25.4
2017-08-18T13:49:20.727Z,25.4
2017-08-18T13:50:28.823Z,25.4
2017-08-18T13:51:36.907Z,25.4
2017-08-18T13:52:44.998Z,25.5
2017-08-18T13:53:53.086Z,25.5
2017-08-18T13:55:01.172Z,25.5
2017-08-18T13:56:09.268Z,25.5
2017-08-18T13:57:17.357Z,25.5
2017-08-18T13:58:25.469Z,25.5
2017-08-18T13:59:33.536Z,25.5
2017-08-18T14:00:41.623Z,25.5
2017-08-18T14:01:49.717Z,25.4
2017-08-18T14:02:57.807Z,25.5
2017-08-18T14:04:05.922Z,25.6
2017-08-18T14:05:13.986Z,25.6
2017-08-18T14:06:22.082Z,25.6
2017-08-18T14:07:30.166Z,25.6
2017-08-18T14:08:38.279Z,25.5
2017-08-18T14:09:46.346Z,25.6
2017-08-18T14:10:54.436Z,25.5
2017-08-18T14:12:02.526Z,25.6
2017-08-18T14:13:10.617Z,25.6
2017-08-18T14:14:18.711Z,25.5
2017-08-18T14:15:26.799Z,25.6
2017-08-18T14:16:35.001Z,25.6
2017-08-18T14:17:42.977Z,25.6
2017-08-18T14:18:51.071Z,25.6
2017-08-18T14:19:59.160Z,25.6
2017-08-18T14:21:07.249Z,25.6
2017-08-18T14:22:15.336Z,25.6
2017-08-18T14:23:24.636Z,25.6
2017-08-18T14:24:31.526Z,25.6
2017-08-18T14:25:39.621Z,25.6
2017-08-18T14:26:47.721Z,25.6
2017-08-18T14:27:55.804Z,25.6
2017-08-18T14:29:03.897Z,25.6
2017-08-18T14:30:11.998Z,25.7
2017-08-18T14:31:20.088Z,25.6
2017-08-18T14:32:28.175Z,25.6
2017-08-18T14:33:36.276Z,25.7
2017-08-18T14:34:44.373Z,25.7
2017-08-18T14:35:52.461Z,25.7
2017-08-18T14:37:00.560Z,25.7
2017-08-18T14:38:08.651Z,25.6
2017-08-18T14:39:16.808Z,25.7
2017-08-18T14:40:24.831Z,25.7
2017-08-18T14:41:32.925Z,25.7
2017-08-18T14:42:41.013Z,25.7
2017-08-18T14:43:49.104Z,25.6
2017-08-18T14:44:57.196Z,25.7
2017-08-18T14:46:05.282Z,25.6
2017-08-18T14:47:13.374Z,25.6
2017-08-18T14:48:21.464Z,25.6
2017-08-18T14:49:29.555Z,25.7
2017-08-18T14:50:37.651Z,25.7
2017-08-18T14:51:45.735Z,25.6
2017-08-18T14:52:53.824Z,25.7
2017-08-18T14:54:01.915Z,25.7
2017-08-18T14:55:10.006Z,25.6
2017-08-18T14:56:18.096Z,25.6
2017-08-18T14:57:26.187Z,25.6
2017-08-18T14:58:34.277Z,25.6
2017-08-18T14:59:42.368Z,25.6
2017-08-18T15:00:50.460Z,25.6
2017-08-18T15:01:58.548Z,25.6
2017-08-18T15:03:06.644Z,25.6
2017-08-18T15:04:14.730Z,25.6
2017-08-18T15:05:22.820Z,25.7
2017-08-18T15:06:30.907Z,25.6
2017-08-18T15:07:38.997Z,25.6